createdAt,value
2022-10-05T00:02:16.632Z,6.28
2022-10-05T00:04:43.495Z,6.50
2022-10-05T00:07:16.491Z,6.80
2022-10-05T00:09:45.796Z,6.95
2022-10-05T00:12:17.939Z,7.47
2022-10-05T00:14:48.058Z,6.68
2022-10-05T00:17:29.618Z,6.43
2022-10-05T00:19:56.509Z,6.53
2022-10-05T00:22:28.889Z,6.43
2022-10-05T00:24:59.002Z,6.20
2022-10-05T00:27:31.678Z,6.35
2022-10-05T00:30:03.316Z,6.47
2022-10-05T00:32:29.943Z,6.75
2022-10-05T00:34:57.585Z,6.95
2022-10-05T00:37:24.205Z,6.63
2022-10-05T00:39:50.799Z,6.57
2022-10-05T00:42:20.154Z,7.15
2022-10-05T00:45:01.722Z,6.47
2022-10-05T00:47:46.356Z,5.90
2022-10-05T00:50:23.705Z,6.55
2022-10-05T00:52:59.385Z,6.45
2022-10-05T00:55:47.647Z,6.28
2022-10-05T00:58:40.646Z,6.53
2022-10-05T01:01:36.407Z,6.50
2022-10-05T01:04:18.144Z,6.63
2022-10-05T01:07:08.586Z,6.40
2022-10-05T01:12:13.440Z,6.72
2022-10-05T01:14:55.973Z,6.68
2022-10-05T01:17:55.036Z,6.95
2022-10-05T01:20:42.920Z,7.88
2022-10-05T01:23:30.518Z,7.40
2022-10-05T01:26:07.602Z,7.45
2022-10-05T01:28:46.448Z,7.93
2022-10-05T01:31:18.488Z,7.97
2022-10-05T01:34:12.700Z,7.32
2022-10-05T01:36:54.468Z,7.38
2022-10-05T01:39:36.721Z,7.55
2022-10-05T01:42:21.955Z,7.25
2022-10-05T01:45:16.835Z,7.32
2022-10-05T01:48:01.227Z,7.70
2022-10-05T01:51:00.093Z,7.00
2022-10-05T01:53:46.746Z,8.40
2022-10-05T01:56:31.463Z,7.53
2022-10-05T01:59:18.750Z,7.38
2022-10-05T02:02:01.808Z,7.45
2022-10-05T02:05:03.922Z,7.05
2022-10-05T02:07:40.247Z,8.40
2022-10-05T02:10:28.973Z,7.75
2022-10-05T02:13:03.774Z,7.97
2022-10-05T02:15:40.970Z,8.27
2022-10-05T02:18:19.437Z,7.93
2022-10-05T02:20:47.458Z,7.35
2022-10-05T02:23:20.542Z,7.63
2022-10-05T02:25:49.511Z,8.07
2022-10-05T02:28:29.326Z,7.75
2022-10-05T02:31:07.152Z,7.65
2022-10-05T02:33:34.788Z,7.13
2022-10-05T02:36:15.915Z,7.47
2022-10-05T02:39:04.134Z,7.35
2022-10-05T02:41:47.527Z,7.15
2022-10-05T02:44:25.824Z,7.43
2022-10-05T02:47:29.490Z,7.68
2022-10-05T02:50:16.960Z,7.55
2022-10-05T02:53:02.000Z,7.57
2022-10-05T02:55:37.086Z,7.47
2022-10-05T02:58:21.688Z,7.60
2022-10-05T03:00:58.160Z,7.35
2022-10-05T03:03:41.974Z,6.88
2022-10-05T03:06:17.167Z,7.18
2022-10-05T03:09:07.865Z,7.50
2022-10-05T03:11:43.287Z,7.40
2022-10-05T03:14:33.517Z,7.53
2022-10-05T03:17:10.162Z,7.05
2022-10-05T03:19:45.698Z,6.93
2022-10-05T03:22:29.710Z,6.80
2022-10-05T03:25:02.336Z,7.00
2022-10-05T03:27:55.791Z,6.97
2022-10-05T03:30:25.602Z,6.43
2022-10-05T03:33:16.625Z,5.97
2022-10-05T03:36:43.728Z,6.28
2022-10-05T03:39:27.964Z,6.50
2022-10-05T03:42:33.089Z,6.10
2022-10-05T03:45:28.478Z,6.50
2022-10-05T03:48:15.251Z,6.00
2022-10-05T03:51:01.708Z,6.70
2022-10-05T03:53:45.796Z,6.00
2022-10-05T03:56:31.381Z,6.90
2022-10-05T03:59:08.183Z,6.57
2022-10-05T04:02:01.549Z,6.13
2022-10-05T04:04:33.013Z,5.95
2022-10-05T04:07:01.472Z,5.85
2022-10-05T04:09:34.084Z,5.97
2022-10-05T04:12:16.303Z,6.57
2022-10-05T04:14:49.894Z,5.47
2022-10-05T04:17:39.418Z,6.22
2022-10-05T04:20:24.739Z,6.53
2022-10-05T04:22:59.481Z,6.10
2022-10-05T04:25:41.213Z,6.72
2022-10-05T04:28:20.235Z,6.18
2022-10-05T04:30:50.449Z,6.13
2022-10-05T04:33:17.320Z,6.13
2022-10-05T04:36:09.393Z,6.50
2022-10-05T04:39:11.401Z,6.30
2022-10-05T04:42:00.433Z,6.43
2022-10-05T04:44:29.738Z,6.82
2022-10-05T04:47:15.151Z,6.10
2022-10-05T04:50:07.721Z,6.00
2022-10-05T04:52:55.266Z,5.93
2022-10-05T04:55:36.123Z,5.28
2022-10-05T04:58:24.790Z,5.25
2022-10-05T05:01:08.133Z,5.03
2022-10-05T05:03:40.992Z,4.88
2022-10-05T05:06:17.344Z,4.20
2022-10-05T05:09:21.944Z,3.95
2022-10-05T05:11:48.523Z,3.80
2022-10-05T05:14:46.645Z,3.30
2022-10-05T05:17:37.546Z,3.28
2022-10-05T05:20:31.319Z,3.72
2022-10-05T05:23:03.965Z,3.42
2022-10-05T05:26:14.249Z,3.20
2022-10-05T05:29:20.625Z,3.15
2022-10-05T05:32:03.855Z,3.38
2022-10-05T05:35:02.550Z,3.50
2022-10-05T05:37:35.367Z,3.47
2022-10-05T05:40:20.896Z,3.38
2022-10-05T05:43:02.373Z,4.28
2022-10-05T05:45:44.004Z,3.53
2022-10-05T05:48:18.906Z,4.00
2022-10-05T05:50:53.666Z,3.75
2022-10-05T05:54:01.076Z,4.15
2022-10-05T05:56:34.661Z,4.30
2022-10-05T05:59:36.019Z,4.78
2022-10-05T06:02:14.911Z,4.75
2022-10-05T06:04:54.669Z,4.82
2022-10-05T06:07:30.210Z,4.72
2022-10-05T06:10:19.783Z,4.45
2022-10-05T06:12:49.018Z,4.95
2022-10-05T06:16:00.881Z,5.25
2022-10-05T06:18:30.445Z,5.35
2022-10-05T06:21:11.772Z,4.80
2022-10-05T06:23:48.001Z,5.30
2022-10-05T06:26:23.314Z,5.50
2022-10-05T06:29:00.665Z,4.90
2022-10-05T06:31:59.020Z,4.88
2022-10-05T06:34:43.773Z,5.10
2022-10-05T06:37:43.620Z,5.28
2022-10-05T06:40:34.365Z,4.82
2022-10-05T06:43:45.657Z,4.80
2022-10-05T06:46:34.071Z,5.03
2022-10-05T06:49:06.170Z,4.13
2022-10-05T06:51:56.009Z,4.22
2022-10-05T06:54:47.856Z,4.53
2022-10-05T06:57:33.422Z,4.07
2022-10-05T07:00:07.546Z,3.95
2022-10-05T07:02:34.171Z,4.30
2022-10-05T07:05:30.852Z,4.43
2022-10-05T07:08:14.535Z,4.65
2022-10-05T07:11:18.610Z,4.00
2022-10-05T07:14:11.362Z,4.47
2022-10-05T07:16:59.577Z,4.43
2022-10-05T07:19:46.095Z,4.20
2022-10-05T07:22:33.459Z,4.07
2022-10-05T07:25:00.998Z,4.22
2022-10-05T07:27:34.298Z,4.50
2022-10-05T07:30:14.895Z,4.53
2022-10-05T07:32:55.329Z,4.35
2022-10-05T07:35:57.637Z,4.20
2022-10-05T07:38:40.820Z,4.18
2022-10-05T07:41:19.281Z,4.40
2022-10-05T07:44:31.049Z,4.65
2022-10-05T07:47:14.364Z,4.18
2022-10-05T07:49:58.727Z,3.60
2022-10-05T07:52:34.489Z,3.63
2022-10-05T07:55:04.715Z,4.20
2022-10-05T07:57:46.597Z,3.78
2022-10-05T08:00:23.142Z,4.07
2022-10-05T08:02:49.941Z,4.20
2022-10-05T08:05:35.522Z,4.13
2022-10-05T08:08:23.102Z,3.92
2022-10-05T08:11:14.854Z,4.10
2022-10-05T08:13:48.949Z,4.30
2022-10-05T08:16:16.657Z,4.63
2022-10-05T08:18:56.055Z,4.80
2022-10-05T08:21:38.203Z,4.78
2022-10-05T08:24:13.853Z,5.00
2022-10-05T08:27:05.034Z,5.25
2022-10-05T08:29:46.089Z,4.47
2022-10-05T08:32:27.533Z,5.55
2022-10-05T08:35:12.710Z,5.82
2022-10-05T08:37:42.459Z,4.55
2022-10-05T08:40:45.226Z,6.10
2022-10-05T08:43:49.215Z,6.57
2022-10-05T08:46:47.026Z,5.22
2022-10-05T08:49:40.258Z,4.63
2022-10-05T08:52:30.102Z,4.10
2022-10-05T08:54:59.835Z,4.15
2022-10-05T08:57:50.972Z,3.83
2022-10-05T09:00:23.432Z,3.60
2022-10-05T09:03:22.236Z,3.88
2022-10-05T09:06:06.876Z,3.75
2022-10-05T09:08:45.956Z,3.40
2022-10-05T09:11:26.171Z,3.42
2022-10-05T09:14:17.338Z,3.28
2022-10-05T09:17:00.706Z,3.40
2022-10-05T09:19:56.486Z,3.20
2022-10-05T09:22:52.548Z,3.40
2022-10-05T09:25:28.863Z,3.42
2022-10-05T09:27:58.778Z,3.40
2022-10-05T09:30:38.135Z,3.58
2022-10-05T09:33:33.657Z,4.00
2022-10-05T09:36:23.883Z,3.63
2022-10-05T09:39:14.129Z,4.10
2022-10-05T09:45:01.578Z,3.70
2022-10-05T09:47:30.720Z,3.20
2022-10-05T09:50:05.874Z,2.90
2022-10-05T09:52:53.489Z,3.42
2022-10-05T09:55:41.485Z,3.03
2022-10-05T09:58:31.247Z,2.92
2022-10-05T10:01:22.155Z,2.75
2022-10-05T10:04:25.403Z,2.95
2022-10-05T10:07:05.169Z,2.92
2022-10-05T10:09:52.657Z,2.97
2022-10-05T10:13:03.013Z,3.10
2022-10-05T10:18:05.115Z,3.60
2022-10-05T10:20:58.811Z,3.90
2022-10-05T10:23:40.723Z,3.50
2022-10-05T10:26:26.604Z,3.58
2022-10-05T10:29:37.352Z,3.45
2022-10-05T10:32:37.739Z,4.13
2022-10-05T10:37:52.968Z,3.30
2022-10-05T10:40:30.058Z,3.45
2022-10-05T10:43:15.799Z,4.30
2022-10-05T10:45:51.849Z,3.80
2022-10-05T10:48:30.224Z,3.50
2022-10-05T10:51:39.428Z,4.03
2022-10-05T10:54:23.692Z,3.97
2022-10-05T10:57:10.035Z,4.47
2022-10-05T11:00:15.636Z,3.60
2022-10-05T11:02:51.258Z,3.63
2022-10-05T11:05:36.172Z,3.80
2022-10-05T11:08:46.566Z,4.13
2022-10-05T11:14:03.714Z,3.78
2022-10-05T11:16:44.917Z,3.55
2022-10-05T11:19:11.510Z,3.90
2022-10-05T11:22:15.595Z,3.63
2022-10-05T11:25:27.704Z,3.97
2022-10-05T11:28:06.525Z,3.60
2022-10-05T11:30:39.212Z,3.78
2022-10-05T11:33:38.734Z,3.70
2022-10-05T11:36:23.370Z,3.50
2022-10-05T11:39:09.404Z,3.70
2022-10-05T11:41:47.058Z,3.42
2022-10-05T11:44:51.799Z,3.40
2022-10-05T11:47:56.084Z,3.30
2022-10-05T11:50:26.977Z,3.28
2022-10-05T11:53:14.952Z,3.10
2022-10-05T11:56:24.456Z,2.83
2022-10-05T11:59:08.221Z,3.07
2022-10-05T12:01:49.457Z,3.40
2022-10-05T12:04:41.127Z,2.80
2022-10-05T12:07:24.014Z,2.70
2022-10-05T12:10:21.683Z,2.72
2022-10-05T12:12:49.873Z,2.78
2022-10-05T12:15:48.132Z,2.42
2022-10-05T12:18:18.349Z,3.15
2022-10-05T12:21:11.011Z,2.75
2022-10-05T12:23:43.797Z,3.00
2022-10-05T12:26:35.224Z,2.80
2022-10-05T12:29:08.392Z,2.85
2022-10-05T12:31:59.622Z,2.45
2022-10-05T12:34:50.041Z,2.70
2022-10-05T12:37:44.091Z,2.88
2022-10-05T12:40:48.091Z,2.33
2022-10-05T12:43:53.781Z,2.95
2022-10-05T12:46:20.402Z,2.75
2022-10-05T12:48:52.504Z,2.70
2022-10-05T12:51:46.618Z,2.80
2022-10-05T12:54:33.985Z,2.53
2022-10-05T12:57:49.250Z,2.60
2022-10-05T13:00:22.867Z,2.92
2022-10-05T13:02:55.873Z,2.78
2022-10-05T13:05:48.329Z,2.70
2022-10-05T13:08:44.009Z,2.83
2022-10-05T13:11:36.151Z,2.92
2022-10-05T13:14:03.024Z,2.60
2022-10-05T13:16:35.754Z,2.55
2022-10-05T13:19:24.874Z,2.58
2022-10-05T13:22:09.420Z,2.75
2022-10-05T13:24:59.324Z,2.80
2022-10-05T13:27:31.786Z,2.60
2022-10-05T13:30:14.266Z,2.53
2022-10-05T13:32:49.315Z,2.58
2022-10-05T13:35:31.007Z,2.67
2022-10-05T13:38:25.553Z,2.33
2022-10-05T13:40:58.427Z,2.88
2022-10-05T13:43:53.198Z,3.10
2022-10-05T13:46:52.020Z,2.65
2022-10-05T13:49:44.438Z,2.80
2022-10-05T13:52:30.442Z,2.83
2022-10-05T13:55:33.196Z,2.80
2022-10-05T13:58:11.613Z,2.55
2022-10-05T14:00:49.832Z,2.50
2022-10-05T14:03:27.432Z,2.70
2022-10-05T14:05:58.159Z,2.50
2022-10-05T14:08:32.115Z,2.50
2022-10-05T14:10:58.960Z,2.40
2022-10-05T14:13:46.712Z,2.80
2022-10-05T14:16:13.465Z,2.28
2022-10-05T14:19:05.265Z,2.40
2022-10-05T14:21:42.519Z,2.25
2022-10-05T14:24:43.297Z,2.30
2022-10-05T14:27:27.564Z,2.25
2022-10-05T14:30:25.624Z,2.20
2022-10-05T14:33:12.494Z,2.15
2022-10-05T14:35:57.039Z,1.90
2022-10-05T14:38:29.732Z,2.28
2022-10-05T14:41:07.799Z,2.10
2022-10-05T14:43:35.089Z,2.25
2022-10-05T14:46:26.999Z,2.22
2022-10-05T14:49:21.012Z,2.20
2022-10-05T14:51:48.806Z,2.00
2022-10-05T14:54:29.185Z,1.90
2022-10-05T14:57:37.532Z,2.10
2022-10-05T15:00:16.521Z,2.47
2022-10-05T15:03:07.674Z,2.33
2022-10-05T15:05:48.208Z,2.30
2022-10-05T15:08:39.000Z,2.30
2022-10-05T15:11:21.621Z,2.00
2022-10-05T15:13:48.784Z,2.15
2022-10-05T15:16:24.941Z,2.10
2022-10-05T15:19:07.284Z,2.10
2022-10-05T15:22:00.984Z,2.38
2022-10-05T15:24:38.927Z,2.10
2022-10-05T15:30:01.125Z,2.22
2022-10-05T15:32:47.973Z,2.55
2022-10-05T15:35:55.902Z,2.33
2022-10-05T15:38:30.285Z,2.40
2022-10-05T15:41:15.937Z,2.80
2022-10-05T15:43:50.940Z,2.40
2022-10-05T15:46:26.656Z,2.60
2022-10-05T15:49:37.041Z,2.90
2022-10-05T15:54:49.811Z,2.30
2022-10-05T15:57:48.631Z,2.05
2022-10-05T16:00:20.738Z,2.50
2022-10-05T16:03:18.112Z,2.50
2022-10-05T16:06:08.321Z,2.30
2022-10-05T16:08:56.517Z,2.30
2022-10-05T16:11:59.726Z,2.28
2022-10-05T16:14:54.588Z,2.47
2022-10-05T16:17:35.015Z,2.15
2022-10-05T16:20:26.618Z,2.30
2022-10-05T16:23:25.637Z,2.50
2022-10-05T16:26:24.522Z,2.83
2022-10-05T16:29:31.183Z,2.35
2022-10-05T16:32:06.942Z,2.80
2022-10-05T16:34:44.368Z,2.40
2022-10-05T16:37:23.665Z,2.38
2022-10-05T16:40:01.280Z,2.20
2022-10-05T16:42:52.642Z,2.30
2022-10-05T16:45:28.046Z,2.30
2022-10-05T16:47:57.348Z,2.28
2022-10-05T16:50:29.596Z,2.45
2022-10-05T16:53:12.175Z,2.78
2022-10-05T16:55:48.152Z,2.55
2022-10-05T16:58:30.943Z,2.67
2022-10-05T17:01:03.781Z,2.55
2022-10-05T17:04:14.567Z,2.78
2022-10-05T17:07:11.897Z,2.38
2022-10-05T17:10:09.748Z,2.50
2022-10-05T17:13:16.176Z,2.55
2022-10-05T17:16:27.766Z,2.58
2022-10-05T17:19:15.299Z,2.40
2022-10-05T17:22:06.155Z,2.15
2022-10-05T17:24:47.624Z,2.58
2022-10-05T17:27:32.837Z,2.50
2022-10-05T17:30:20.959Z,2.45
2022-10-05T17:32:56.739Z,2.35
2022-10-05T17:35:50.691Z,2.47
2022-10-05T17:38:20.061Z,2.58
2022-10-05T17:41:20.259Z,2.50
2022-10-05T17:44:19.094Z,2.60
2022-10-05T17:46:48.421Z,2.38
2022-10-05T17:49:46.809Z,3.00
2022-10-05T17:52:45.667Z,2.60
2022-10-05T17:55:28.578Z,2.30
2022-10-05T17:57:59.584Z,2.45
2022-10-05T18:00:32.259Z,2.53
2022-10-05T18:02:59.343Z,2.75
2022-10-05T18:05:28.913Z,2.30
2022-10-05T18:08:13.752Z,2.67
2022-10-05T18:11:05.241Z,2.55
2022-10-05T18:13:50.038Z,2.80
2022-10-05T18:16:54.462Z,3.13
2022-10-05T18:19:22.474Z,3.00
2022-10-05T18:22:06.129Z,2.50
2022-10-05T18:25:05.899Z,2.53
2022-10-05T18:27:44.555Z,2.60
2022-10-05T18:30:37.622Z,2.75
2022-10-05T18:33:19.261Z,2.60
2022-10-05T18:36:06.598Z,2.63
2022-10-05T18:38:53.511Z,4.00
2022-10-05T18:41:29.144Z,2.90
2022-10-05T18:44:12.064Z,2.65
2022-10-05T18:46:47.396Z,2.70
2022-10-05T18:50:00.502Z,3.05
2022-10-05T18:52:36.417Z,2.80
2022-10-05T18:55:15.360Z,3.03
2022-10-05T18:57:59.546Z,2.70
2022-10-05T19:00:44.932Z,2.80
2022-10-05T19:03:19.019Z,2.63
2022-10-05T19:05:58.732Z,2.67
2022-10-05T19:08:43.373Z,2.72
2022-10-05T19:11:19.654Z,2.80
2022-10-05T19:14:07.697Z,2.97
2022-10-05T19:16:58.756Z,2.95
2022-10-05T19:19:46.367Z,2.65
2022-10-05T19:23:09.799Z,2.55
2022-10-05T19:25:58.655Z,2.92
2022-10-05T19:28:41.177Z,3.20
2022-10-05T19:31:23.276Z,3.05
2022-10-05T19:34:30.943Z,2.70
2022-10-05T19:37:27.447Z,2.38
2022-10-05T19:40:12.321Z,2.40
2022-10-05T19:43:07.778Z,2.13
2022-10-05T19:45:42.792Z,2.10
2022-10-05T19:48:35.733Z,2.20
2022-10-05T19:51:10.930Z,2.50
2022-10-05T19:53:43.113Z,1.50
2022-10-05T19:56:17.934Z,1.10
2022-10-05T19:58:44.930Z,0.98
2022-10-05T20:01:23.973Z,0.93
2022-10-05T20:03:51.804Z,1.40
2022-10-05T20:06:21.576Z,1.10
2022-10-05T20:08:51.261Z,1.00
2022-10-05T20:11:23.374Z,0.90
2022-10-05T20:13:52.648Z,0.98
2022-10-05T20:19:44.935Z,1.30
2022-10-05T20:22:46.346Z,0.93
2022-10-05T20:25:18.924Z,1.33
2022-10-05T20:27:55.693Z,1.00
2022-10-05T20:30:29.142Z,1.30
2022-10-05T20:32:58.216Z,1.40
2022-10-05T20:35:27.799Z,1.23
2022-10-05T20:38:00.006Z,1.35
2022-10-05T20:40:29.015Z,1.10
2022-10-05T20:42:56.810Z,1.40
2022-10-05T20:45:23.497Z,1.77
2022-10-05T20:47:50.674Z,1.58
2022-10-05T20:50:17.887Z,1.60
2022-10-05T20:52:44.592Z,1.52
2022-10-05T20:55:11.679Z,1.65
2022-10-05T20:57:41.846Z,1.20
2022-10-05T21:00:11.055Z,1.20
2022-10-05T21:02:39.375Z,1.58
2022-10-05T21:05:07.569Z,1.40
2022-10-05T21:07:34.602Z,1.63
2022-10-05T21:10:03.236Z,1.20
2022-10-05T21:12:30.137Z,1.25
2022-10-05T21:14:56.800Z,1.10
2022-10-05T21:17:23.512Z,1.05
2022-10-05T21:19:50.193Z,1.40
2022-10-05T21:22:16.903Z,1.05
2022-10-05T21:24:43.579Z,1.13
2022-10-05T21:27:10.244Z,1.00
2022-10-05T21:29:37.103Z,1.27
2022-10-05T21:32:08.446Z,1.10
2022-10-05T21:34:35.280Z,1.20
2022-10-05T21:37:01.905Z,1.23
2022-10-05T21:39:28.549Z,0.90
2022-10-05T21:41:55.393Z,1.10
2022-10-05T21:44:22.262Z,1.35
2022-10-05T21:46:49.238Z,1.02
2022-10-05T21:49:19.589Z,1.27
2022-10-05T21:51:47.177Z,1.00
2022-10-05T21:54:20.977Z,1.20
2022-10-05T21:56:50.827Z,1.50
2022-10-05T21:59:20.888Z,1.20
2022-10-05T22:01:47.531Z,1.27
2022-10-05T22:04:15.010Z,1.45
2022-10-05T22:06:41.645Z,1.30
2022-10-05T22:09:08.323Z,1.20
2022-10-05T22:11:35.003Z,1.10
2022-10-05T22:14:02.722Z,1.27
2022-10-05T22:16:36.569Z,1.10
2022-10-05T22:19:06.105Z,1.20
2022-10-05T22:21:37.761Z,1.67
2022-10-05T22:24:04.739Z,1.10
2022-10-05T22:26:31.613Z,1.20
2022-10-05T22:28:58.598Z,1.42
2022-10-05T22:31:25.311Z,1.75
2022-10-05T22:33:52.450Z,1.50
2022-10-05T22:36:19.649Z,1.17
2022-10-05T22:38:47.498Z,1.50
2022-10-05T22:41:16.421Z,1.60
2022-10-05T22:43:43.122Z,1.35
2022-10-05T22:46:13.566Z,1.50
2022-10-05T22:48:40.657Z,1.50
2022-10-05T22:51:08.117Z,1.60
2022-10-05T22:53:35.192Z,1.30
2022-10-05T22:56:11.126Z,2.05
2022-10-05T22:58:38.398Z,1.90
2022-10-05T23:01:07.418Z,1.92
2022-10-05T23:03:34.910Z,2.05
2022-10-05T23:06:10.979Z,1.63
2022-10-05T23:08:38.583Z,1.60
2022-10-05T23:11:05.801Z,1.65
2022-10-05T23:13:33.461Z,1.80
2022-10-05T23:16:14.702Z,1.50
2022-10-05T23:18:41.572Z,1.75
2022-10-05T23:21:09.739Z,1.98
2022-10-05T23:23:37.473Z,2.10
2022-10-05T23:26:05.733Z,2.20
2022-10-05T23:28:33.099Z,2.28
2022-10-05T23:31:06.735Z,2.17
2022-10-05T23:33:34.617Z,2.22
2022-10-05T23:36:03.433Z,2.60
2022-10-05T23:38:30.643Z,2.13
2022-10-05T23:40:58.889Z,2.42
2022-10-05T23:43:26.774Z,2.00
2022-10-05T23:45:54.227Z,1.90
2022-10-05T23:48:21.530Z,2.30
2022-10-05T23:50:49.737Z,2.40
2022-10-05T23:53:17.998Z,2.20
2022-10-05T23:55:45.283Z,2.53
2022-10-05T23:58:12.321Z,1.80
